Time;durP1;ratioP1;P1;durP2;ratioP2;P2;SDS_P1;SDS_P2;PMS_P1;PMS_P2;Temp;Humidity;BMP_temperature;BMP_pressure;BME280_temperature;BME280_humidity;BME280_pressure;Samples;Min_cycle;Max_cycle;Signal;HPM_P1;HPM_P2
2023/12/12 00:00:07;;;;;;;4.00;1.30;;;15.90;88.40;;;;;;4165533;28;20063;-66
2023/12/12 00:02:52;;;;;;;1.50;1.00;;;15.90;87.40;;;;;;4186794;28;20178;-65
2023/12/12 00:05:34;;;;;;;6.43;1.50;;;15.90;87.50;;;;;;4187991;28;20051;-65
2023/12/12 00:08:15;;;;;;;3.65;1.25;;;15.90;87.30;;;;;;4169849;28;20087;-65
2023/12/12 00:10:56;;;;;;;3.78;1.20;;;15.90;87.30;;;;;;4167517;28;20403;-67
2023/12/12 00:13:37;;;;;;;5.50;1.23;;;16.00;87.40;;;;;;4169662;28;20500;-67
2023/12/12 00:16:19;;;;;;;4.15;1.23;;;16.00;87.20;;;;;;4169401;28;20164;-67
2023/12/12 00:19:00;;;;;;;;;;;16.00;87.00;;;;;;4182707;28;20060;-67
2023/12/12 00:21:42;;;;;;;3.30;1.20;;;16.10;86.90;;;;;;4186910;28;20366;-67
2023/12/12 00:24:23;;;;;;;4.07;1.17;;;16.10;86.80;;;;;;4187417;28;20056;-67
2023/12/12 00:27:05;;;;;;;2.13;1.15;;;16.10;86.50;;;;;;4178350;28;20086;-67
2023/12/12 00:29:46;;;;;;;;;;;16.20;86.50;;;;;;4170563;28;20408;-67
2023/12/12 00:32:27;;;;;;;1.77;1.03;;;16.10;87.40;;;;;;4169492;28;19935;-67
2023/12/12 00:35:10;;;;;;;3.42;1.13;;;16.20;86.80;;;;;;4163678;28;20075;-67
2023/12/12 00:37:52;;;;;;;5.43;1.50;;;16.20;86.50;;;;;;4168903;28;20092;-67
2023/12/12 00:40:33;;;;;;;3.30;1.15;;;16.20;86.10;;;;;;4171873;28;20075;-68
2023/12/12 00:43:14;;;;;;;;;;;16.30;86.00;;;;;;4161241;28;20882;-68
2023/12/12 00:45:55;;;;;;;3.10;1.17;;;16.30;85.90;;;;;;4154253;28;20705;-67
2023/12/12 00:48:36;;;;;;;4.75;1.33;;;16.30;86.80;;;;;;4171633;28;20227;-68
2023/12/12 00:51:17;;;;;;;3.40;1.25;;;16.30;85.90;;;;;;4169054;28;20052;-69
2023/12/12 00:53:59;;;;;;;5.25;1.45;;;16.30;86.10;;;;;;4167523;28;20916;-68
2023/12/12 00:56:44;;;;;;;3.60;1.35;;;16.30;85.80;;;;;;4178795;28;20105;-67
2023/12/12 00:59:24;;;;;;;5.55;1.60;;;16.30;85.60;;;;;;4193489;28;20052;-67
2023/12/12 01:02:05;;;;;;;3.08;0.93;;;16.30;85.60;;;;;;4169669;28;20183;-67
2023/12/12 01:04:46;;;;;;;3.58;1.02;;;16.30;85.80;;;;;;4173582;28;20055;-67
2023/12/12 01:07:27;;;;;;;3.78;1.15;;;16.40;85.60;;;;;;4186989;28;20510;-67
2023/12/12 01:10:10;;;;;;;;;;;16.50;85.30;;;;;;4175380;28;20407;-67
2023/12/12 01:12:51;;;;;;;7.90;1.00;;;16.40;86.10;;;;;;4170135;28;20435;-68
2023/12/12 01:15:32;;;;;;;3.13;1.05;;;16.40;85.30;;;;;;4167418;28;20060;-68
2023/12/12 01:18:13;;;;;;;2.33;1.20;;;16.40;85.10;;;;;;4154110;28;20187;-68
2023/12/12 01:20:54;;;;;;;4.30;1.42;;;16.30;85.20;;;;;;4186656;28;20055;-68
2023/12/12 01:23:52;;;;;;;2.58;1.15;;;16.40;85.40;;;;;;4185825;28;20687;-68
2023/12/12 01:26:34;;;;;;;3.75;1.15;;;16.30;85.10;;;;;;4185875;28;20121;-68
2023/12/12 01:29:16;;;;;;;3.45;1.10;;;16.40;85.30;;;;;;4183374;28;20052;-69
2023/12/12 01:31:57;;;;;;;3.53;1.30;;;16.40;85.20;;;;;;4180755;28;20064;-70
2023/12/12 01:34:38;;;;;;;1.65;0.90;;;16.40;85.10;;;;;;4184822;28;20489;-69
2023/12/12 01:37:19;;;;;;;5.47;1.33;;;16.40;85.00;;;;;;4168944;28;20113;-69
2023/12/12 01:40:00;;;;;;;1.95;1.50;;;16.50;85.00;;;;;;4176940;28;20585;-68
2023/12/12 01:42:43;;;;;;;;;;;16.50;84.90;;;;;;4187699;28;20059;-66
2023/12/12 01:45:26;;;;;;;1.52;1.05;;;16.50;85.00;;;;;;4184120;28;20370;-67
2023/12/12 01:48:07;;;;;;;2.92;1.23;;;16.40;85.00;;;;;;4177667;28;20048;-67
2023/12/12 01:50:50;;;;;;;1.48;1.25;;;16.40;84.60;;;;;;4167003;28;20076;-67
2023/12/12 01:53:35;;;;;;;5.40;1.73;;;16.40;84.50;;;;;;4164025;28;20055;-67
2023/12/12 01:56:17;;;;;;;5.38;1.35;;;16.50;84.40;;;;;;4166815;28;20056;-66
2023/12/12 01:59:00;;;;;;;3.78;1.95;;;16.40;84.60;;;;;;4161339;28;20443;-66
2023/12/12 02:01:41;;;;;;;2.05;1.05;;;16.40;84.50;;;;;;4186802;28;20101;-67
2023/12/12 02:04:23;;;;;;;3.35;1.27;;;16.40;84.50;;;;;;4185536;28;20052;-66
2023/12/12 02:07:05;;;;;;;5.40;1.27;;;16.40;84.60;;;;;;4180647;28;20067;-67
2023/12/12 02:09:46;;;;;;;3.00;1.20;;;16.40;84.50;;;;;;4197468;28;20056;-67
2023/12/12 02:12:28;;;;;;;4.13;1.50;;;16.40;84.80;;;;;;4175445;28;20507;-67
2023/12/12 02:15:11;;;;;;;4.65;1.58;;;16.40;84.90;;;;;;4182554;28;20636;-67
2023/12/12 02:17:52;;;;;;;1.33;0.82;;;16.40;84.50;;;;;;4170386;28;20075;-67
2023/12/12 02:20:33;;;;;;;;;;;16.40;85.30;;;;;;4174990;28;20097;-67
2023/12/12 02:23:15;;;;;;;2.33;1.40;;;16.40;84.60;;;;;;4186731;28;19943;-67
2023/12/12 02:25:57;;;;;;;8.48;1.48;;;16.40;84.60;;;;;;4183546;28;20576;-68
2023/12/12 02:28:38;;;;;;;4.25;1.50;;;16.40;85.20;;;;;;4190702;28;20063;-68
2023/12/12 02:31:19;;;;;;;5.25;1.20;;;16.40;84.20;;;;;;4188358;28;20109;-68
2023/12/12 02:34:00;;;;;;;1.65;1.30;;;16.40;84.30;;;;;;4171075;28;20047;-67
2023/12/12 02:36:41;;;;;;;1.33;1.10;;;16.30;84.30;;;;;;4185029;28;20055;-67
2023/12/12 02:39:23;;;;;;;3.80;1.75;;;16.30;84.40;;;;;;4187202;28;20517;-67
2023/12/12 02:42:05;;;;;;;3.75;1.50;;;16.30;84.70;;;;;;4183170;28;21671;-68
2023/12/12 02:44:46;;;;;;;;;;;16.20;84.90;;;;;;4190506;28;20086;-68
2023/12/12 02:47:27;;;;;;;4.37;1.30;;;16.20;85.30;;;;;;4169820;28;19946;-68
2023/12/12 02:50:09;;;;;;;1.75;1.05;;;16.30;85.50;;;;;;4185754;28;20067;-67
2023/12/12 02:52:50;;;;;;;;;;;16.30;85.10;;;;;;4171485;28;20068;-68
2023/12/12 02:55:33;;;;;;;4.93;1.50;;;16.30;84.80;;;;;;4169646;28;19928;-69
2023/12/12 02:58:13;;;;;;;3.40;1.60;;;16.40;84.80;;;;;;4153794;28;20087;-69
2023/12/12 03:00:55;;;;;;;1.23;1.13;;;16.40;84.60;;;;;;4172408;28;20060;-69
2023/12/12 03:03:36;;;;;;;4.63;1.30;;;16.50;84.60;;;;;;4154924;28;20064;-68
2023/12/12 03:06:25;;;;;;;2.78;1.58;;;16.50;84.20;;;;;;4169746;28;20167;-68
2023/12/12 03:09:06;;;;;;;1.30;1.17;;;16.60;83.80;;;;;;4184754;28;20397;-69
2023/12/12 03:11:51;;;;;;;3.20;1.42;;;16.60;83.40;;;;;;4172461;28;20052;-67
2023/12/12 03:14:32;;;;;;;1.15;1.02;;;16.60;83.30;;;;;;4167976;28;20067;-67
2023/12/12 03:17:14;;;;;;;2.75;1.30;;;16.60;83.50;;;;;;4171187;28;20500;-68
2023/12/12 03:19:55;;;;;;;4.18;1.08;;;16.50;83.60;;;;;;4167922;28;20400;-68
2023/12/12 03:22:36;;;;;;;2.67;1.30;;;16.60;83.60;;;;;;4155658;28;20530;-68
2023/12/12 03:25:17;;;;;;;4.05;1.40;;;16.50;83.50;;;;;;4171579;28;20051;-68
2023/12/12 03:28:02;;;;;;;3.72;1.15;;;16.50;83.50;;;;;;4161030;28;20385;-68
2023/12/12 03:30:44;;;;;;;3.50;1.27;;;16.50;83.50;;;;;;4156622;28;20048;-68
2023/12/12 03:33:25;;;;;;;1.90;1.10;;;16.40;83.60;;;;;;4165430;28;20495;-68
2023/12/12 03:36:08;;;;;;;2.15;1.13;;;16.40;83.70;;;;;;4171208;28;20056;-68
2023/12/12 03:38:49;;;;;;;3.70;1.20;;;16.30;84.10;;;;;;4181318;28;20399;-68
2023/12/12 03:41:31;;;;;;;1.77;1.25;;;16.30;84.40;;;;;;4186367;28;20063;-68
2023/12/12 03:44:13;;;;;;;2.58;1.20;;;16.30;84.20;;;;;;4155810;28;20052;-68
2023/12/12 03:46:55;;;;;;;5.65;2.05;;;16.30;84.10;;;;;;4154544;28;20114;-67
2023/12/12 03:49:36;;;;;;;2.88;1.20;;;16.30;84.10;;;;;;4170290;28;20052;-68
2023/12/12 03:52:17;;;;;;;3.05;1.23;;;16.30;84.20;;;;;;4177230;28;20061;-68
2023/12/12 03:54:58;;;;;;;2.83;1.20;;;16.20;84.20;;;;;;4188684;28;20074;-68
2023/12/12 03:57:39;;;;;;;2.97;1.10;;;16.10;84.40;;;;;;4170282;28;20060;-66
2023/12/12 04:00:21;;;;;;;1.65;1.00;;;16.20;84.90;;;;;;4183215;28;20094;-67
2023/12/12 04:03:03;;;;;;;2.70;1.20;;;16.20;84.90;;;;;;4182770;28;20152;-67
2023/12/12 04:05:44;;;;;;;1.45;1.05;;;16.30;84.70;;;;;;4186455;28;20051;-68
2023/12/12 04:08:25;;;;;;;2.25;1.10;;;16.30;84.30;;;;;;4187808;28;20052;-68
2023/12/12 04:11:06;;;;;;;3.97;1.10;;;16.30;84.20;;;;;;4184961;28;20081;-68
2023/12/12 04:13:47;;;;;;;6.35;0.95;;;16.30;84.20;;;;;;4186826;28;20055;-68
2023/12/12 04:16:30;;;;;;;5.13;1.48;;;16.40;84.20;;;;;;4156107;28;20231;-67
2023/12/12 04:19:11;;;;;;;3.17;0.73;;;16.40;83.90;;;;;;4167059;28;20126;-66
2023/12/12 04:21:52;;;;;;;2.00;1.10;;;16.40;83.80;;;;;;4179640;28;20525;-65
2023/12/12 04:24:36;;;;;;;1.00;0.73;;;16.50;83.90;;;;;;4167041;28;20097;-67
2023/12/12 04:27:17;;;;;;;6.00;1.30;;;16.50;83.60;;;;;;4132877;28;20123;-67
2023/12/12 04:29:58;;;;;;;2.80;1.13;;;16.50;83.40;;;;;;4157807;28;20075;-67
2023/12/12 04:32:41;;;;;;;2.13;0.90;;;16.50;83.40;;;;;;4183343;28;20534;-67
2023/12/12 04:35:22;;;;;;;1.95;0.80;;;16.60;83.40;;;;;;4160180;28;20052;-67
2023/12/12 04:38:03;;;;;;;4.78;1.08;;;16.60;83.10;;;;;;4180986;28;20079;-67
2023/12/12 04:40:44;;;;;;;1.83;0.90;;;16.70;82.80;;;;;;4183781;27;20159;-67
2023/12/12 04:43:26;;;;;;;1.60;0.88;;;16.80;82.50;;;;;;4169645;28;20404;-68
2023/12/12 04:46:07;;;;;;;4.30;1.35;;;16.80;82.40;;;;;;4163175;28;20534;-68
2023/12/12 04:48:49;;;;;;;5.43;1.15;;;16.80;82.20;;;;;;4172593;28;20154;-68
2023/12/12 04:51:30;;;;;;;2.97;1.35;;;16.80;82.10;;;;;;4159357;28;20412;-68
2023/12/12 04:54:11;;;;;;;3.85;1.15;;;16.80;82.10;;;;;;4186099;28;20059;-68
2023/12/12 04:56:53;;;;;;;2.55;1.40;;;16.80;82.10;;;;;;4169742;28;20597;-68
2023/12/12 04:59:36;;;;;;;3.38;1.40;;;16.70;82.10;;;;;;4180101;28;20059;-66
2023/12/12 05:02:20;;;;;;;4.10;1.25;;;16.70;82.20;;;;;;4186188;28;20055;-66
2023/12/12 05:05:03;;;;;;;4.63;1.58;;;16.70;82.30;;;;;;4185139;28;20059;-67
2023/12/12 05:07:44;;;;;;;2.28;1.10;;;16.70;82.50;;;;;;4186025;28;20056;-67
2023/12/12 05:10:26;;;;;;;2.85;1.67;;;16.80;82.40;;;;;;4174882;28;20502;-68
2023/12/12 05:13:07;;;;;;;5.03;1.02;;;16.80;82.10;;;;;;4184252;28;20104;-67
2023/12/12 05:15:48;;;;;;;1.88;1.40;;;16.80;81.70;;;;;;4182507;28;20170;-67
2023/12/12 05:18:29;;;;;;;3.60;1.63;;;16.80;81.80;;;;;;4168872;28;20097;-69
2023/12/12 05:21:12;;;;;;;4.85;2.03;;;16.80;81.70;;;;;;4196202;28;20414;-68
2023/12/12 05:23:53;;;;;;;3.78;1.33;;;16.80;81.70;;;;;;4166873;28;20125;-68
2023/12/12 05:26:34;;;;;;;3.70;1.27;;;16.80;81.60;;;;;;4152347;28;20063;-68
2023/12/12 05:29:15;;;;;;;3.95;2.92;;;16.80;81.80;;;;;;4168315;28;20303;-67
2023/12/12 05:31:56;;;;;;;3.40;1.35;;;16.80;81.90;;;;;;4167334;28;20101;-67
2023/12/12 05:34:37;;;;;;;5.82;2.35;;;16.80;81.80;;;;;;4183455;28;20479;-68
2023/12/12 05:37:20;;;;;;;4.20;1.42;;;16.80;81.80;;;;;;4186437;28;20056;-67
2023/12/12 05:40:01;;;;;;;2.97;1.58;;;16.80;81.80;;;;;;4179997;28;20654;-67
2023/12/12 05:42:42;;;;;;;4.10;2.10;;;16.80;81.80;;;;;;4167651;28;20447;-66
2023/12/12 05:45:23;;;;;;;2.72;1.67;;;16.80;81.80;;;;;;4153817;28;20158;-67
2023/12/12 05:48:05;;;;;;;2.45;1.98;;;16.70;81.80;;;;;;4160411;28;20528;-67
2023/12/12 05:50:47;;;;;;;2.42;1.60;;;16.70;82.00;;;;;;4169059;28;20142;-67
2023/12/12 05:53:30;;;;;;;2.58;1.63;;;16.70;82.10;;;;;;4158518;28;20052;-66
2023/12/12 05:56:13;;;;;;;4.50;1.80;;;16.50;82.20;;;;;;4167111;28;20095;-66
2023/12/12 05:58:54;;;;;;;2.78;1.83;;;16.50;82.50;;;;;;4184462;28;20056;-67
2023/12/12 06:01:39;;;;;;;8.43;2.45;;;16.50;82.90;;;;;;4151456;28;20504;-67
2023/12/12 06:04:19;;;;;;;6.38;3.00;;;16.40;83.00;;;;;;4145794;28;20060;-67
2023/12/12 06:07:01;;;;;;;5.20;2.83;;;16.40;83.10;;;;;;4170692;28;20057;-67
2023/12/12 06:09:44;;;;;;;5.70;3.33;;;16.40;83.00;;;;;;4175983;28;20071;-67
2023/12/12 06:12:25;;;;;;;6.00;3.33;;;16.40;83.90;;;;;;4184485;28;20487;-67
2023/12/12 06:15:10;;;;;;;8.10;3.38;;;16.40;83.00;;;;;;4184718;28;20174;-66
2023/12/12 06:17:50;;;;;;;8.02;3.22;;;16.40;82.90;;;;;;4186532;28;20051;-68
2023/12/12 06:20:33;;;;;;;6.80;3.72;;;16.50;83.20;;;;;;4180322;28;20171;-67
2023/12/12 06:23:15;;;;;;;4.95;2.75;;;16.50;83.20;;;;;;4185015;28;20173;-66
2023/12/12 06:25:58;;;;;;;3.63;3.17;;;16.50;84.10;;;;;;4188108;28;20097;-68
2023/12/12 06:28:42;;;;;;;5.25;2.80;;;16.50;82.80;;;;;;4183552;28;20403;-60
2023/12/12 06:31:24;;;;;;;6.07;3.35;;;16.60;82.50;;;;;;4184188;28;20051;-67
2023/12/12 06:34:05;;;;;;;7.22;3.53;;;16.70;82.50;;;;;;4177366;28;20063;-67
2023/12/12 06:36:46;;;;;;;5.50;3.20;;;16.80;82.50;;;;;;4169618;28;20086;-67
2023/12/12 06:39:28;;;;;;;6.53;3.33;;;16.90;81.90;;;;;;4173002;28;20055;-66
2023/12/12 06:42:11;;;;;;;6.75;3.80;;;16.90;81.60;;;;;;4172402;28;20538;-67
2023/12/12 06:44:52;;;;;;;7.60;3.55;;;16.90;81.40;;;;;;4169940;28;20060;-66
2023/12/12 06:47:33;;;;;;;7.43;3.70;;;17.00;81.20;;;;;;4162502;28;20527;-66
2023/12/12 06:50:14;;;;;;;8.48;4.03;;;17.00;81.10;;;;;;4186793;28;20448;-66
2023/12/12 06:52:55;;;;;;;11.77;4.30;;;17.00;80.90;;;;;;4188520;28;20069;-66
2023/12/12 06:55:37;;;;;;;12.40;3.95;;;17.00;80.90;;;;;;4174548;28;20288;-66
2023/12/12 06:58:22;;;;;;;15.50;4.35;;;17.00;80.90;;;;;;4175089;28;20577;-66
2023/12/12 07:01:03;;;;;;;14.90;4.20;;;17.00;80.80;;;;;;4171015;28;20060;-66
2023/12/12 07:03:44;;;;;;;10.23;4.20;;;16.90;80.90;;;;;;4172645;28;20546;-66
2023/12/12 07:06:26;;;;;;;11.95;3.80;;;16.90;81.00;;;;;;4177310;28;20167;-67
2023/12/12 07:09:10;;;;;;;5.10;4.30;;;17.00;81.00;;;;;;4149383;28;20099;-67
2023/12/12 07:11:51;;;;;;;7.07;4.72;;;17.00;81.50;;;;;;4171824;28;20047;-68
2023/12/12 07:14:52;;;;;;;6.95;4.68;;;17.00;80.60;;;;;;4177329;28;20151;-70
2023/12/12 07:17:33;;;;;;;6.60;4.45;;;17.00;80.20;;;;;;4171782;28;20938;-70
2023/12/12 07:20:14;;;;;;;7.05;5.25;;;17.00;79.10;;;;;;4162252;28;20064;-70
2023/12/12 07:22:55;;;;;;;6.78;4.18;;;17.00;79.60;;;;;;4153510;28;20044;-69
2023/12/12 07:25:36;;;;;;;7.60;4.20;;;17.00;79.60;;;;;;4173432;28;20047;-68
2023/12/12 07:28:17;;;;;;;;;;;16.90;79.60;;;;;;4186741;28;20075;-68
2023/12/12 07:31:00;;;;;;;4.17;3.73;;;16.80;80.20;;;;;;4163335;28;19928;-67
2023/12/12 07:33:42;;;;;;;5.22;4.13;;;16.80;80.20;;;;;;4158131;28;20283;-68
2023/12/12 07:36:23;;;;;;;7.85;4.40;;;16.70;80.50;;;;;;4144041;28;20056;-68
2023/12/12 07:39:05;;;;;;;4.78;4.30;;;16.70;80.50;;;;;;4162044;28;20379;-68
2023/12/12 07:41:46;;;;;;;6.18;4.22;;;16.80;80.20;;;;;;4178987;28;20109;-68
2023/12/12 07:44:27;;;;;;;5.75;4.30;;;16.80;80.20;;;;;;4178464;28;20097;-68
2023/12/12 07:47:10;;;;;;;7.43;4.68;;;16.80;80.10;;;;;;4175284;28;20191;-68
2023/12/12 07:49:51;;;;;;;10.30;4.47;;;16.80;80.10;;;;;;4172293;28;20673;-68
2023/12/12 07:52:34;;;;;;;8.75;4.93;;;16.80;79.90;;;;;;4180725;28;20047;-68
2023/12/12 07:55:15;;;;;;;6.88;4.82;;;16.70;80.00;;;;;;4171169;28;20052;-69
2023/12/12 07:57:55;;;;;;;11.57;6.35;;;16.60;80.00;;;;;;4157261;28;20453;-68
2023/12/12 08:00:37;;;;;;;6.35;4.10;;;16.60;80.30;;;;;;4168427;28;20184;-68
2023/12/12 08:03:21;;;;;;;5.10;4.60;;;16.60;80.40;;;;;;4187885;28;20052;-68
2023/12/12 08:06:03;;;;;;;8.23;4.57;;;16.50;80.80;;;;;;4174373;28;20048;-68
2023/12/12 08:08:45;;;;;;;12.02;4.75;;;16.40;80.90;;;;;;4171638;28;20231;-69
2023/12/12 08:11:27;;;;;;;12.48;4.50;;;16.50;80.60;;;;;;4170697;28;20511;-69
2023/12/12 08:14:09;;;;;;;9.25;5.07;;;16.50;80.50;;;;;;4179071;28;20056;-69
2023/12/12 08:16:51;;;;;;;7.55;4.72;;;16.60;80.40;;;;;;4174588;28;20176;-69
2023/12/12 08:19:33;;;;;;;6.50;4.60;;;16.60;80.00;;;;;;4166505;28;20202;-69
2023/12/12 08:22:14;;;;;;;10.32;4.80;;;16.70;79.40;;;;;;4172684;28;20206;-69
2023/12/12 08:24:55;;;;;;;10.55;5.40;;;16.70;78.60;;;;;;4168515;28;20527;-69
2023/12/12 08:27:37;;;;;;;13.57;5.10;;;16.70;78.80;;;;;;4181186;28;21097;-69
2023/12/12 08:30:18;;;;;;;14.43;4.88;;;16.70;78.90;;;;;;4170571;28;20143;-69
2023/12/12 08:32:59;;;;;;;17.23;5.15;;;16.70;78.90;;;;;;4179782;28;20060;-69
2023/12/12 08:35:42;;;;;;;12.35;5.25;;;16.70;78.80;;;;;;4173545;28;20064;-69
2023/12/12 08:38:23;;;;;;;7.43;4.88;;;16.60;78.70;;;;;;4178264;28;20085;-69
2023/12/12 08:41:05;;;;;;;;;;;16.60;78.40;;;;;;4160134;28;20067;-66
2023/12/12 08:43:50;;;;;;;15.77;5.80;;;16.60;78.60;;;;;;4182887;28;19967;-68
2023/12/12 08:46:31;;;;;;;12.23;5.35;;;16.40;78.60;;;;;;4168832;28;20071;-68
2023/12/12 08:49:12;;;;;;;7.32;4.90;;;16.40;78.90;;;;;;4171150;28;20139;-66
2023/12/12 08:51:55;;;;;;;;;;;16.30;79.30;;;;;;4193139;28;20495;-64
2023/12/12 08:54:37;;;;;;;14.63;5.50;;;16.20;81.00;;;;;;4162901;28;19947;-65
2023/12/12 08:57:19;;;;;;;7.18;5.60;;;16.30;81.50;;;;;;4173986;28;20055;-64
2023/12/12 09:00:01;;;;;;;8.82;5.28;;;16.30;81.50;;;;;;4165468;28;20136;-64
2023/12/12 09:02:44;;;;;;;7.40;5.85;;;16.40;81.60;;;;;;4180183;28;20370;-64
2023/12/12 09:05:26;;;;;;;8.05;5.47;;;16.50;81.10;;;;;;4172076;28;20059;-65
2023/12/12 09:08:08;;;;;;;12.75;5.55;;;16.40;81.10;;;;;;4180326;28;20055;-65
2023/12/12 09:10:49;;;;;;;10.93;5.93;;;16.50;81.20;;;;;;4166523;28;20102;-64
2023/12/12 09:13:30;;;;;;;9.13;6.40;;;16.50;81.10;;;;;;4173817;28;20110;-64
2023/12/12 09:16:12;;;;;;;15.13;7.20;;;16.50;81.20;;;;;;4180175;28;20051;-66
2023/12/12 09:18:53;;;;;;;11.05;6.90;;;16.60;81.20;;;;;;4180792;28;20490;-65
2023/12/12 09:21:34;;;;;;;14.85;6.93;;;16.60;80.60;;;;;;4168667;28;20561;-65
2023/12/12 09:24:19;;;;;;;16.27;6.53;;;16.60;80.40;;;;;;4167629;28;20491;-67
2023/12/12 09:27:00;;;;;;;29.27;6.65;;;16.50;80.10;;;;;;4178301;28;20549;-66
2023/12/12 09:29:42;;;;;;;23.15;6.20;;;16.50;80.50;;;;;;4158854;28;20056;-66
2023/12/12 09:32:25;;;;;;;17.98;6.55;;;16.40;80.40;;;;;;4166253;28;20953;-66
2023/12/12 09:35:07;;;;;;;23.13;6.93;;;16.40;80.60;;;;;;4166829;28;20041;-66
2023/12/12 09:37:48;;;;;;;;;;;16.30;81.00;;;;;;4167024;28;20420;-65
2023/12/12 09:40:36;;;;;;;19.08;5.90;;;16.30;81.50;;;;;;4164036;28;19943;-66
2023/12/12 09:43:24;;;;;;;17.10;5.70;;;16.20;81.90;;;;;;4174764;28;20738;-65
2023/12/12 09:46:08;;;;;;;38.03;6.53;;;16.10;82.00;;;;;;4165508;28;20076;-65
2023/12/12 09:48:53;;;;;;;23.65;6.45;;;16.10;82.20;;;;;;4182141;28;20055;-66
2023/12/12 09:51:35;;;;;;;13.13;6.40;;;16.00;82.30;;;;;;4170010;28;20057;-66
2023/12/12 09:54:21;;;;;;;28.23;6.50;;;15.90;82.60;;;;;;4173535;28;20056;-65
2023/12/12 09:57:06;;;;;;;23.08;7.38;;;15.90;82.80;;;;;;4168270;28;20183;-65
2023/12/12 09:59:47;;;;;;;27.13;7.32;;;15.80;83.00;;;;;;4167421;28;20052;-65
2023/12/12 10:02:34;;;;;;;34.50;6.80;;;15.80;83.70;;;;;;4170322;28;20066;-66
2023/12/12 10:05:16;;;;;;;19.75;6.47;;;15.80;83.70;;;;;;4169516;28;20055;-64
2023/12/12 10:07:57;;;;;;;23.15;6.97;;;15.80;83.40;;;;;;4166902;28;20084;-64
2023/12/12 10:10:41;;;;;;;23.83;7.05;;;15.80;83.50;;;;;;4176997;28;20229;-64
2023/12/12 10:13:24;;;;;;;25.63;6.88;;;15.80;83.30;;;;;;4179224;28;20047;-64
2023/12/12 10:16:12;;;;;;;29.65;6.40;;;15.80;83.30;;;;;;4180037;28;20143;-64
2023/12/12 10:18:58;;;;;;;17.90;7.63;;;15.80;83.20;;;;;;4167148;28;20079;-64
2023/12/12 10:21:39;;;;;;;18.27;6.55;;;15.70;83.40;;;;;;4165838;28;20051;-64
2023/12/12 10:24:26;;;;;;;18.95;7.47;;;15.70;83.70;;;;;;4179281;28;20060;-63
2023/12/12 10:27:08;;;;;;;28.25;6.63;;;15.60;83.50;;;;;;4175353;28;20051;-63
2023/12/12 10:29:51;;;;;;;16.75;6.85;;;15.60;83.00;;;;;;4174436;28;20388;-65
2023/12/12 10:32:32;;;;;;;13.80;6.97;;;15.50;82.50;;;;;;4160588;28;20056;-64
2023/12/12 10:35:13;;;;;;;;;;;15.50;82.60;;;;;;4155945;28;20080;-64
2023/12/12 10:37:55;;;;;;;23.55;7.38;;;15.40;83.70;;;;;;4153425;28;19935;-64
2023/12/12 10:40:36;;;;;;;20.57;7.73;;;15.40;83.90;;;;;;4159122;28;20064;-64
2023/12/12 10:43:18;;;;;;;29.52;7.70;;;15.30;84.20;;;;;;4169850;28;20196;-63
2023/12/12 10:46:01;;;;;;;20.85;7.95;;;15.30;84.60;;;;;;4168813;28;20064;-63
2023/12/12 10:48:47;;;;;;;28.70;7.43;;;15.30;84.80;;;;;;4159927;28;20068;-63
2023/12/12 10:51:29;;;;;;;30.95;7.97;;;15.20;85.30;;;;;;4156877;28;20523;-63
2023/12/12 10:54:10;;;;;;;27.77;7.00;;;15.20;85.80;;;;;;4165294;28;20063;-63
2023/12/12 10:56:52;;;;;;;21.35;7.82;;;15.30;86.70;;;;;;4152155;28;20182;-62
2023/12/12 10:59:35;;;;;;;33.25;8.00;;;15.30;86.30;;;;;;4165902;28;20056;-67
2023/12/12 11:02:36;;;;;;;18.88;8.35;;;15.30;86.10;;;;;;4170080;28;20140;-67
2023/12/12 11:05:20;;;;;;;20.00;8.40;;;15.30;86.00;;;;;;4167010;28;20518;-67
2023/12/12 11:08:05;;;;;;;31.80;8.75;;;15.40;86.20;;;;;;4168864;28;20101;-63
2023/12/12 11:10:47;;;;;;;27.45;8.85;;;15.40;85.90;;;;;;4166000;28;20143;-63
2023/12/12 11:13:31;;;;;;;33.42;8.93;;;15.50;85.60;;;;;;4165685;28;20522;-63
2023/12/12 11:16:13;;;;;;;26.35;8.93;;;15.50;85.30;;;;;;4157731;28;20187;-62
2023/12/12 11:18:57;;;;;;;21.15;8.38;;;15.50;85.30;;;;;;4157353;28;20056;-63
2023/12/12 11:21:46;;;;;;;14.52;8.43;;;15.50;85.30;;;;;;4164272;28;20052;-62
2023/12/12 11:24:59;;;;;;;32.88;8.90;;;15.50;85.40;;;;;;4150654;28;20068;-63
2023/12/12 11:27:45;;;;;;;22.55;10.13;;;15.60;85.10;;;;;;4166033;28;20052;-63
2023/12/12 11:30:31;;;;;;;24.63;9.63;;;15.70;85.10;;;;;;4169037;28;20515;-62
2023/12/12 11:33:12;;;;;;;40.42;10.30;;;15.80;85.10;;;;;;4182653;28;20071;-67
2023/12/12 11:35:54;;;;;;;18.60;9.27;;;15.80;85.30;;;;;;4184663;28;20060;-67
2023/12/12 11:38:35;;;;;;;14.98;8.70;;;15.90;85.30;;;;;;4183256;28;20079;-67
2023/12/12 11:41:18;;;;;;;22.52;8.63;;;16.00;84.70;;;;;;4181836;28;20511;-68
2023/12/12 11:43:59;;;;;;;19.38;9.40;;;16.00;84.70;;;;;;4173366;28;20072;-67
2023/12/12 11:46:40;;;;;;;26.27;10.23;;;16.00;84.90;;;;;;4168766;28;20059;-63
2023/12/12 11:49:22;;;;;;;17.75;10.30;;;16.00;84.90;;;;;;4170093;28;20051;-62
2023/12/12 11:52:07;;;;;;;19.25;10.05;;;16.00;85.70;;;;;;4177269;28;20060;-62
2023/12/12 11:54:53;;;;;;;16.77;9.48;;;16.00;84.80;;;;;;4168182;28;20404;-64
2023/12/12 11:57:35;;;;;;;21.77;11.27;;;16.00;84.60;;;;;;4173293;28;20051;-62
2023/12/12 12:00:20;;;;;;;20.95;11.02;;;15.90;84.80;;;;;;4176316;28;20047;-62
2023/12/12 12:03:02;;;;;;;19.67;10.63;;;15.90;85.00;;;;;;4167001;28;20117;-67
2023/12/12 12:05:43;;;;;;;14.23;11.02;;;15.80;85.00;;;;;;4169068;28;20051;-66
2023/12/12 12:08:26;;;;;;;13.77;10.50;;;15.80;85.30;;;;;;4172619;28;20052;-67
2023/12/12 12:11:07;;;;;;;17.98;11.57;;;15.70;85.30;;;;;;4170562;28;20191;-67
2023/12/12 12:13:48;;;;;;;21.77;12.40;;;15.70;85.30;;;;;;4170707;28;20052;-68
2023/12/12 12:16:30;;;;;;;18.65;13.50;;;15.70;85.30;;;;;;4180868;28;20195;-67
2023/12/12 12:19:31;;;;;;;18.92;12.93;;;15.70;85.50;;;;;;4184710;28;20128;-67
2023/12/12 12:22:13;;;;;;;21.10;13.68;;;15.70;85.20;;;;;;4183011;28;20063;-67
2023/12/12 12:24:55;;;;;;;18.73;13.38;;;15.80;85.50;;;;;;4168346;28;20078;-67
2023/12/12 12:27:49;;;;;;;19.35;11.95;;;15.80;85.40;;;;;;4184727;28;20055;-68
2023/12/12 12:30:44;;;;;;;15.50;11.27;;;15.80;84.80;;;;;;4180363;28;20281;-67
2023/12/12 12:33:31;;;;;;;14.85;12.00;;;15.80;85.10;;;;;;4172244;28;20048;-62
2023/12/12 12:36:12;;;;;;;16.73;12.32;;;15.80;85.10;;;;;;4168922;28;20048;-62
2023/12/12 12:39:04;;;;;;;17.70;11.45;;;15.90;86.10;;;;;;4167194;28;20091;-62
2023/12/12 12:41:54;;;;;;;16.38;11.68;;;15.90;85.60;;;;;;4174401;28;20063;-61
2023/12/12 12:44:36;;;;;;;16.20;11.18;;;16.00;85.30;;;;;;4179669;28;20068;-61
2023/12/12 12:47:21;;;;;;;13.98;10.65;;;16.00;85.10;;;;;;4183702;28;20392;-59
2023/12/12 12:50:03;;;;;;;13.45;10.90;;;16.00;84.50;;;;;;4168335;28;20060;-59
2023/12/12 12:52:44;;;;;;;13.80;10.93;;;16.10;84.20;;;;;;4182368;28;20059;-59
2023/12/12 12:55:26;;;;;;;20.17;10.68;;;16.10;83.90;;;;;;4175521;28;20079;-60
2023/12/12 12:58:12;;;;;;;13.90;10.98;;;16.10;83.80;;;;;;4173511;28;20602;-60
2023/12/12 13:00:54;;;;;;;12.30;9.93;;;16.10;83.40;;;;;;4170128;28;20059;-60
2023/12/12 13:03:35;;;;;;;11.23;10.02;;;16.00;82.90;;;;;;4184654;28;20063;-60
2023/12/12 13:06:17;;;;;;;13.80;9.95;;;16.10;83.00;;;;;;4182766;28;20133;-60
2023/12/12 13:08:59;;;;;;;14.82;10.70;;;16.00;82.90;;;;;;4168277;28;20067;-60
2023/12/12 13:11:40;;;;;;;14.25;11.18;;;16.00;82.80;;;;;;4178589;28;20515;-60
2023/12/12 13:14:23;;;;;;;12.07;10.88;;;16.10;82.80;;;;;;4169178;28;20066;-59
2023/12/12 13:17:06;;;;;;;13.48;11.55;;;16.00;82.20;;;;;;4163217;28;20508;-59
2023/12/12 13:19:48;;;;;;;17.10;11.77;;;16.10;82.40;;;;;;4168390;28;20501;-59
2023/12/12 13:22:29;;;;;;;13.18;11.73;;;16.00;82.20;;;;;;4168654;28;20075;-60
2023/12/12 13:25:12;;;;;;;14.95;11.45;;;16.00;82.90;;;;;;4166984;28;20519;-59
2023/12/12 13:27:53;;;;;;;17.38;12.48;;;15.90;82.00;;;;;;4182365;28;20519;-60
2023/12/12 13:30:36;;;;;;;13.30;10.93;;;15.90;82.40;;;;;;4183885;28;20186;-59
2023/12/12 13:33:17;;;;;;;17.50;11.80;;;16.00;82.50;;;;;;4184108;28;20063;-59
2023/12/12 13:35:58;;;;;;;13.63;10.38;;;16.00;81.80;;;;;;4180218;28;20059;-60
2023/12/12 13:38:41;;;;;;;14.65;12.15;;;16.00;81.50;;;;;;4181345;28;20418;-59
2023/12/12 13:41:22;;;;;;;15.52;11.57;;;16.00;81.20;;;;;;4180129;28;20059;-60
2023/12/12 13:44:03;;;;;;;13.40;11.10;;;16.00;81.80;;;;;;4170551;28;20060;-60
2023/12/12 13:46:46;;;;;;;12.68;10.82;;;16.00;82.70;;;;;;4177468;28;20063;-60
2023/12/12 13:49:27;;;;;;;14.85;11.38;;;16.00;82.50;;;;;;4175715;28;20090;-60
2023/12/12 13:52:09;;;;;;;15.02;11.13;;;16.00;82.50;;;;;;4168825;28;20531;-60
2023/12/12 13:54:50;;;;;;;13.43;11.18;;;16.00;82.40;;;;;;4173935;28;20105;-59
2023/12/12 13:57:31;;;;;;;15.90;11.68;;;16.00;82.50;;;;;;4184321;28;20056;-59
2023/12/12 14:00:13;;;;;;;14.43;11.00;;;15.90;82.50;;;;;;4166621;28;21029;-60
2023/12/12 14:02:59;;;;;;;15.70;12.23;;;15.90;82.60;;;;;;4172989;28;20133;-59